sensor_id;sensor_type;location;lat;lon;timestamp;P1;durP1;ratioP1;P2;durP2;ratioP2
75628;SDS011;64213;46.452;16.994;2023-08-30T00:02:41;2.65;;;0.60;;
75628;SDS011;64213;46.452;16.994;2023-08-30T00:05:43;3.80;;;0.70;;
75628;SDS011;64213;46.452;16.994;2023-08-30T00:08:45;3.77;;;0.80;;
75628;SDS011;64213;46.452;16.994;2023-08-30T00:11:48;3.15;;;0.57;;
75628;SDS011;64213;46.452;16.994;2023-08-30T00:14:50;3.37;;;0.60;;
75628;SDS011;64213;46.452;16.994;2023-08-30T00:17:52;4.22;;;0.70;;
75628;SDS011;64213;46.452;16.994;2023-08-30T00:20:55;3.83;;;0.57;;
75628;SDS011;64213;46.452;16.994;2023-08-30T00:23:58;3.43;;;0.70;;
75628;SDS011;64213;46.452;16.994;2023-08-30T00:27:01;4.20;;;0.65;;
75628;SDS011;64213;46.452;16.994;2023-08-30T00:30:04;4.05;;;0.60;;
75628;SDS011;64213;46.452;16.994;2023-08-30T00:33:07;2.60;;;0.50;;
75628;SDS011;64213;46.452;16.994;2023-08-30T00:36:09;2.83;;;0.43;;
75628;SDS011;64213;46.452;16.994;2023-08-30T00:39:11;4.53;;;0.77;;
75628;SDS011;64213;46.452;16.994;2023-08-30T00:42:14;3.00;;;0.50;;
75628;SDS011;64213;46.452;16.994;2023-08-30T00:45:16;3.25;;;0.50;;
75628;SDS011;64213;46.452;16.994;2023-08-30T00:48:19;2.50;;;0.45;;
75628;SDS011;64213;46.452;16.994;2023-08-30T00:51:22;4.05;;;0.73;;
75628;SDS011;64213;46.452;16.994;2023-08-30T00:54:24;2.70;;;0.60;;
75628;SDS011;64213;46.452;16.994;2023-08-30T00:57:27;3.85;;;0.80;;
75628;SDS011;64213;46.452;16.994;2023-08-30T01:00:29;4.75;;;0.55;;
75628;SDS011;64213;46.452;16.994;2023-08-30T01:03:32;3.20;;;0.50;;
75628;SDS011;64213;46.452;16.994;2023-08-30T01:06:34;2.97;;;0.50;;
75628;SDS011;64213;46.452;16.994;2023-08-30T01:09:40;4.17;;;0.57;;
75628;SDS011;64213;46.452;16.994;2023-08-30T01:12:49;4.32;;;0.70;;
75628;SDS011;64213;46.452;16.994;2023-08-30T01:15:55;2.35;;;0.43;;
75628;SDS011;64213;46.452;16.994;2023-08-30T01:18:59;4.10;;;0.60;;
75628;SDS011;64213;46.452;16.994;2023-08-30T01:22:19;3.45;;;0.57;;
75628;SDS011;64213;46.452;16.994;2023-08-30T01:29:01;3.47;;;0.68;;
75628;SDS011;64213;46.452;16.994;2023-08-30T01:32:05;3.33;;;0.60;;
75628;SDS011;64213;46.452;16.994;2023-08-30T01:35:10;5.07;;;0.93;;
75628;SDS011;64213;46.452;16.994;2023-08-30T01:38:12;3.58;;;0.80;;
75628;SDS011;64213;46.452;16.994;2023-08-30T01:41:16;3.90;;;0.73;;
75628;SDS011;64213;46.452;16.994;2023-08-30T01:44:19;3.90;;;0.70;;
75628;SDS011;64213;46.452;16.994;2023-08-30T01:47:25;2.62;;;0.70;;
75628;SDS011;64213;46.452;16.994;2023-08-30T01:50:29;2.83;;;0.43;;
75628;SDS011;64213;46.452;16.994;2023-08-30T01:53:33;3.30;;;0.60;;
75628;SDS011;64213;46.452;16.994;2023-08-30T01:56:36;2.93;;;0.60;;
75628;SDS011;64213;46.452;16.994;2023-08-30T01:59:38;3.92;;;0.50;;
75628;SDS011;64213;46.452;16.994;2023-08-30T02:02:41;3.65;;;0.60;;
75628;SDS011;64213;46.452;16.994;2023-08-30T02:05:48;2.87;;;0.40;;
75628;SDS011;64213;46.452;16.994;2023-08-30T02:12:46;3.20;;;0.60;;
75628;SDS011;64213;46.452;16.994;2023-08-30T02:15:50;3.65;;;0.60;;
75628;SDS011;64213;46.452;16.994;2023-08-30T02:18:54;5.18;;;0.70;;
75628;SDS011;64213;46.452;16.994;2023-08-30T02:21:57;3.58;;;0.50;;
75628;SDS011;64213;46.452;16.994;2023-08-30T02:24:59;4.22;;;0.60;;
75628;SDS011;64213;46.452;16.994;2023-08-30T02:28:06;3.63;;;0.60;;
75628;SDS011;64213;46.452;16.994;2023-08-30T02:31:08;3.83;;;0.80;;
75628;SDS011;64213;46.452;16.994;2023-08-30T02:34:10;3.87;;;0.60;;
75628;SDS011;64213;46.452;16.994;2023-08-30T02:37:13;4.03;;;0.75;;
75628;SDS011;64213;46.452;16.994;2023-08-30T02:40:15;3.83;;;0.70;;
75628;SDS011;64213;46.452;16.994;2023-08-30T02:43:17;4.00;;;0.70;;
75628;SDS011;64213;46.452;16.994;2023-08-30T02:46:19;4.75;;;0.68;;
75628;SDS011;64213;46.452;16.994;2023-08-30T02:49:21;3.65;;;0.60;;
75628;SDS011;64213;46.452;16.994;2023-08-30T02:52:23;5.28;;;0.90;;
75628;SDS011;64213;46.452;16.994;2023-08-30T02:55:26;5.62;;;1.00;;
75628;SDS011;64213;46.452;16.994;2023-08-30T02:58:28;4.23;;;0.70;;
75628;SDS011;64213;46.452;16.994;2023-08-30T03:01:34;3.33;;;0.60;;
75628;SDS011;64213;46.452;16.994;2023-08-30T03:04:37;4.05;;;0.85;;
75628;SDS011;64213;46.452;16.994;2023-08-30T03:07:40;5.35;;;0.82;;
75628;SDS011;64213;46.452;16.994;2023-08-30T03:10:42;4.10;;;0.88;;
75628;SDS011;64213;46.452;16.994;2023-08-30T03:13:44;4.77;;;0.90;;
75628;SDS011;64213;46.452;16.994;2023-08-30T03:16:46;6.10;;;1.05;;
75628;SDS011;64213;46.452;16.994;2023-08-30T03:19:50;5.18;;;0.95;;
75628;SDS011;64213;46.452;16.994;2023-08-30T03:22:57;3.97;;;0.73;;
75628;SDS011;64213;46.452;16.994;2023-08-30T03:25:59;4.82;;;1.00;;
75628;SDS011;64213;46.452;16.994;2023-08-30T03:29:08;7.77;;;1.00;;
75628;SDS011;64213;46.452;16.994;2023-08-30T03:32:13;6.72;;;1.00;;
75628;SDS011;64213;46.452;16.994;2023-08-30T03:35:18;6.12;;;0.80;;
75628;SDS011;64213;46.452;16.994;2023-08-30T03:38:23;3.60;;;0.70;;
75628;SDS011;64213;46.452;16.994;2023-08-30T03:42:07;4.13;;;0.80;;
75628;SDS011;64213;46.452;16.994;2023-08-30T03:45:10;7.55;;;0.80;;
75628;SDS011;64213;46.452;16.994;2023-08-30T03:48:12;4.53;;;0.93;;
75628;SDS011;64213;46.452;16.994;2023-08-30T03:51:14;4.43;;;0.70;;
75628;SDS011;64213;46.452;16.994;2023-08-30T03:54:16;4.95;;;0.98;;
75628;SDS011;64213;46.452;16.994;2023-08-30T03:57:19;6.50;;;0.73;;
75628;SDS011;64213;46.452;16.994;2023-08-30T04:00:21;4.12;;;0.70;;
75628;SDS011;64213;46.452;16.994;2023-08-30T04:03:23;3.22;;;0.60;;
75628;SDS011;64213;46.452;16.994;2023-08-30T04:06:25;4.85;;;0.82;;
75628;SDS011;64213;46.452;16.994;2023-08-30T04:09:27;3.60;;;0.70;;
75628;SDS011;64213;46.452;16.994;2023-08-30T04:12:30;4.00;;;0.70;;
75628;SDS011;64213;46.452;16.994;2023-08-30T04:15:32;4.53;;;1.00;;
75628;SDS011;64213;46.452;16.994;2023-08-30T04:18:35;7.97;;;1.30;;
75628;SDS011;64213;46.452;16.994;2023-08-30T04:21:38;9.07;;;1.42;;
75628;SDS011;64213;46.452;16.994;2023-08-30T04:24:40;5.65;;;1.10;;
75628;SDS011;64213;46.452;16.994;2023-08-30T04:27:42;4.80;;;0.80;;
75628;SDS011;64213;46.452;16.994;2023-08-30T04:30:44;4.45;;;0.80;;
75628;SDS011;64213;46.452;16.994;2023-08-30T04:33:46;4.47;;;0.90;;
75628;SDS011;64213;46.452;16.994;2023-08-30T04:36:48;4.70;;;0.93;;
75628;SDS011;64213;46.452;16.994;2023-08-30T04:39:50;4.57;;;0.70;;
75628;SDS011;64213;46.452;16.994;2023-08-30T04:42:52;3.77;;;0.60;;
75628;SDS011;64213;46.452;16.994;2023-08-30T04:45:54;4.07;;;0.70;;
75628;SDS011;64213;46.452;16.994;2023-08-30T04:48:57;6.25;;;1.20;;
75628;SDS011;64213;46.452;16.994;2023-08-30T04:51:59;4.05;;;0.70;;
75628;SDS011;64213;46.452;16.994;2023-08-30T04:55:01;3.35;;;0.70;;
75628;SDS011;64213;46.452;16.994;2023-08-30T04:58:03;4.80;;;0.63;;
75628;SDS011;64213;46.452;16.994;2023-08-30T05:01:05;3.83;;;0.52;;
75628;SDS011;64213;46.452;16.994;2023-08-30T05:04:08;3.72;;;0.80;;
75628;SDS011;64213;46.452;16.994;2023-08-30T05:07:10;4.53;;;0.60;;
75628;SDS011;64213;46.452;16.994;2023-08-30T05:10:12;5.90;;;0.80;;
75628;SDS011;64213;46.452;16.994;2023-08-30T05:13:15;4.23;;;0.70;;
75628;SDS011;64213;46.452;16.994;2023-08-30T05:16:18;4.07;;;0.60;;
75628;SDS011;64213;46.452;16.994;2023-08-30T05:19:23;4.68;;;0.77;;
75628;SDS011;64213;46.452;16.994;2023-08-30T05:22:25;3.62;;;0.60;;
75628;SDS011;64213;46.452;16.994;2023-08-30T05:25:28;5.15;;;0.65;;
75628;SDS011;64213;46.452;16.994;2023-08-30T05:31:49;4.60;;;0.80;;
75628;SDS011;64213;46.452;16.994;2023-08-30T05:34:51;4.18;;;0.90;;
75628;SDS011;64213;46.452;16.994;2023-08-30T05:37:53;6.35;;;0.80;;
75628;SDS011;64213;46.452;16.994;2023-08-30T05:40:55;4.55;;;0.90;;
75628;SDS011;64213;46.452;16.994;2023-08-30T05:43:57;5.80;;;0.93;;
75628;SDS011;64213;46.452;16.994;2023-08-30T05:47:00;4.32;;;1.00;;
75628;SDS011;64213;46.452;16.994;2023-08-30T05:50:02;6.10;;;1.00;;
75628;SDS011;64213;46.452;16.994;2023-08-30T05:53:04;5.07;;;1.08;;
75628;SDS011;64213;46.452;16.994;2023-08-30T05:56:06;6.00;;;1.30;;
75628;SDS011;64213;46.452;16.994;2023-08-30T05:59:08;7.00;;;1.03;;
75628;SDS011;64213;46.452;16.994;2023-08-30T06:02:10;5.65;;;0.70;;
75628;SDS011;64213;46.452;16.994;2023-08-30T06:05:15;4.90;;;1.08;;
75628;SDS011;64213;46.452;16.994;2023-08-30T06:08:21;6.60;;;1.10;;
75628;SDS011;64213;46.452;16.994;2023-08-30T06:11:23;4.30;;;0.90;;
75628;SDS011;64213;46.452;16.994;2023-08-30T06:14:25;5.10;;;0.90;;
75628;SDS011;64213;46.452;16.994;2023-08-30T06:21:25;4.85;;;1.00;;
75628;SDS011;64213;46.452;16.994;2023-08-30T06:24:27;5.70;;;0.80;;
75628;SDS011;64213;46.452;16.994;2023-08-30T06:27:30;7.00;;;1.27;;
75628;SDS011;64213;46.452;16.994;2023-08-30T06:30:32;7.53;;;1.40;;
75628;SDS011;64213;46.452;16.994;2023-08-30T06:33:34;4.68;;;0.90;;
75628;SDS011;64213;46.452;16.994;2023-08-30T06:36:37;5.60;;;1.20;;
75628;SDS011;64213;46.452;16.994;2023-08-30T06:39:40;3.62;;;0.70;;
75628;SDS011;64213;46.452;16.994;2023-08-30T06:42:42;4.97;;;0.90;;
75628;SDS011;64213;46.452;16.994;2023-08-30T06:45:45;4.23;;;1.00;;
75628;SDS011;64213;46.452;16.994;2023-08-30T06:48:48;6.22;;;1.12;;
75628;SDS011;64213;46.452;16.994;2023-08-30T06:51:52;4.87;;;0.98;;
75628;SDS011;64213;46.452;16.994;2023-08-30T06:54:54;4.85;;;1.00;;
75628;SDS011;64213;46.452;16.994;2023-08-30T06:57:57;4.57;;;0.90;;
75628;SDS011;64213;46.452;16.994;2023-08-30T07:01:00;5.63;;;0.90;;
75628;SDS011;64213;46.452;16.994;2023-08-30T07:04:07;4.60;;;0.80;;
75628;SDS011;64213;46.452;16.994;2023-08-30T07:07:11;5.03;;;1.12;;
75628;SDS011;64213;46.452;16.994;2023-08-30T07:10:17;4.05;;;0.80;;
75628;SDS011;64213;46.452;16.994;2023-08-30T07:13:25;3.17;;;0.77;;
75628;SDS011;64213;46.452;16.994;2023-08-30T07:16:28;3.47;;;0.60;;
75628;SDS011;64213;46.452;16.994;2023-08-30T07:19:31;6.72;;;0.75;;
75628;SDS011;64213;46.452;16.994;2023-08-30T07:22:34;4.78;;;1.20;;
75628;SDS011;64213;46.452;16.994;2023-08-30T07:25:38;4.55;;;0.90;;
75628;SDS011;64213;46.452;16.994;2023-08-30T07:28:41;5.50;;;1.05;;
75628;SDS011;64213;46.452;16.994;2023-08-30T07:31:44;4.57;;;0.90;;
75628;SDS011;64213;46.452;16.994;2023-08-30T07:34:50;5.22;;;0.90;;
75628;SDS011;64213;46.452;16.994;2023-08-30T07:37:53;4.43;;;0.80;;
75628;SDS011;64213;46.452;16.994;2023-08-30T07:40:55;4.40;;;0.73;;
75628;SDS011;64213;46.452;16.994;2023-08-30T07:43:58;4.53;;;0.90;;
75628;SDS011;64213;46.452;16.994;2023-08-30T07:47:01;6.93;;;1.00;;
75628;SDS011;64213;46.452;16.994;2023-08-30T07:50:04;6.25;;;0.90;;
75628;SDS011;64213;46.452;16.994;2023-08-30T07:53:08;5.15;;;0.90;;
75628;SDS011;64213;46.452;16.994;2023-08-30T07:56:12;4.75;;;0.85;;
75628;SDS011;64213;46.452;16.994;2023-08-30T07:59:15;4.87;;;1.10;;
75628;SDS011;64213;46.452;16.994;2023-08-30T08:02:17;4.50;;;0.80;;
75628;SDS011;64213;46.452;16.994;2023-08-30T08:05:19;4.45;;;1.10;;
75628;SDS011;64213;46.452;16.994;2023-08-30T08:08:21;4.70;;;1.17;;
75628;SDS011;64213;46.452;16.994;2023-08-30T08:11:23;4.70;;;1.00;;
75628;SDS011;64213;46.452;16.994;2023-08-30T08:14:25;4.18;;;0.80;;
75628;SDS011;64213;46.452;16.994;2023-08-30T08:17:28;4.43;;;0.97;;
75628;SDS011;64213;46.452;16.994;2023-08-30T08:20:30;3.92;;;0.90;;
75628;SDS011;64213;46.452;16.994;2023-08-30T08:23:34;3.95;;;0.82;;
75628;SDS011;64213;46.452;16.994;2023-08-30T08:26:36;4.40;;;1.20;;
75628;SDS011;64213;46.452;16.994;2023-08-30T08:29:38;4.65;;;0.65;;
75628;SDS011;64213;46.452;16.994;2023-08-30T08:32:40;4.73;;;0.90;;
75628;SDS011;64213;46.452;16.994;2023-08-30T08:35:43;4.43;;;0.90;;
75628;SDS011;64213;46.452;16.994;2023-08-30T08:38:46;4.57;;;0.95;;
75628;SDS011;64213;46.452;16.994;2023-08-30T08:41:51;5.82;;;1.17;;
75628;SDS011;64213;46.452;16.994;2023-08-30T08:44:56;6.12;;;1.20;;
75628;SDS011;64213;46.452;16.994;2023-08-30T08:48:01;5.30;;;1.27;;
75628;SDS011;64213;46.452;16.994;2023-08-30T08:51:05;5.47;;;1.45;;
75628;SDS011;64213;46.452;16.994;2023-08-30T08:54:08;5.80;;;1.58;;
75628;SDS011;64213;46.452;16.994;2023-08-30T08:57:11;5.65;;;1.50;;
75628;SDS011;64213;46.452;16.994;2023-08-30T09:00:15;5.40;;;1.40;;
75628;SDS011;64213;46.452;16.994;2023-08-30T09:03:18;6.00;;;1.47;;
75628;SDS011;64213;46.452;16.994;2023-08-30T09:06:21;5.50;;;1.58;;
75628;SDS011;64213;46.452;16.994;2023-08-30T09:09:24;5.40;;;1.50;;
75628;SDS011;64213;46.452;16.994;2023-08-30T09:12:27;5.10;;;1.30;;
75628;SDS011;64213;46.452;16.994;2023-08-30T09:15:35;5.70;;;1.55;;
75628;SDS011;64213;46.452;16.994;2023-08-30T09:18:43;5.83;;;1.63;;
75628;SDS011;64213;46.452;16.994;2023-08-30T09:22:00;5.80;;;1.30;;
75628;SDS011;64213;46.452;16.994;2023-08-30T09:25:03;5.50;;;1.35;;
75628;SDS011;64213;46.452;16.994;2023-08-30T09:28:05;5.90;;;1.48;;
75628;SDS011;64213;46.452;16.994;2023-08-30T09:31:07;6.80;;;1.50;;
75628;SDS011;64213;46.452;16.994;2023-08-30T09:34:24;5.10;;;1.40;;
75628;SDS011;64213;46.452;16.994;2023-08-30T09:37:27;4.35;;;1.00;;
75628;SDS011;64213;46.452;16.994;2023-08-30T09:40:29;5.20;;;1.30;;
75628;SDS011;64213;46.452;16.994;2023-08-30T09:43:32;7.97;;;1.33;;
75628;SDS011;64213;46.452;16.994;2023-08-30T09:46:44;6.62;;;1.40;;
75628;SDS011;64213;46.452;16.994;2023-08-30T09:49:56;4.97;;;1.00;;
75628;SDS011;64213;46.452;16.994;2023-08-30T09:53:06;5.90;;;1.40;;
75628;SDS011;64213;46.452;16.994;2023-08-30T09:56:13;6.30;;;1.20;;
75628;SDS011;64213;46.452;16.994;2023-08-30T09:59:16;4.43;;;1.10;;
75628;SDS011;64213;46.452;16.994;2023-08-30T10:02:19;4.75;;;1.12;;
75628;SDS011;64213;46.452;16.994;2023-08-30T10:05:22;4.43;;;1.00;;
75628;SDS011;64213;46.452;16.994;2023-08-30T10:08:25;5.07;;;1.23;;
75628;SDS011;64213;46.452;16.994;2023-08-30T10:11:33;4.43;;;1.08;;
75628;SDS011;64213;46.452;16.994;2023-08-30T10:14:36;4.60;;;1.10;;
75628;SDS011;64213;46.452;16.994;2023-08-30T10:17:39;4.75;;;1.20;;
75628;SDS011;64213;46.452;16.994;2023-08-30T10:20:46;4.03;;;0.90;;
75628;SDS011;64213;46.452;16.994;2023-08-30T10:23:49;5.20;;;1.12;;
75628;SDS011;64213;46.452;16.994;2023-08-30T10:26:57;4.65;;;1.15;;
75628;SDS011;64213;46.452;16.994;2023-08-30T10:30:01;5.10;;;1.30;;
75628;SDS011;64213;46.452;16.994;2023-08-30T10:33:11;4.70;;;1.20;;
75628;SDS011;64213;46.452;16.994;2023-08-30T10:36:21;4.77;;;1.20;;
75628;SDS011;64213;46.452;16.994;2023-08-30T10:39:32;3.95;;;1.00;;
75628;SDS011;64213;46.452;16.994;2023-08-30T10:42:38;4.35;;;1.00;;
75628;SDS011;64213;46.452;16.994;2023-08-30T10:45:41;4.85;;;1.08;;
75628;SDS011;64213;46.452;16.994;2023-08-30T10:48:43;4.75;;;1.37;;
75628;SDS011;64213;46.452;16.994;2023-08-30T10:51:53;4.30;;;0.90;;
75628;SDS011;64213;46.452;16.994;2023-08-30T10:55:11;4.53;;;1.20;;
75628;SDS011;64213;46.452;16.994;2023-08-30T10:58:14;4.18;;;1.17;;
75628;SDS011;64213;46.452;16.994;2023-08-30T11:01:17;4.97;;;1.10;;
75628;SDS011;64213;46.452;16.994;2023-08-30T11:04:21;5.30;;;1.40;;
75628;SDS011;64213;46.452;16.994;2023-08-30T11:07:27;6.27;;;1.27;;
75628;SDS011;64213;46.452;16.994;2023-08-30T11:10:29;4.85;;;1.30;;
75628;SDS011;64213;46.452;16.994;2023-08-30T11:13:31;5.53;;;1.60;;
75628;SDS011;64213;46.452;16.994;2023-08-30T11:16:34;3.92;;;1.08;;
75628;SDS011;64213;46.452;16.994;2023-08-30T11:19:39;4.40;;;1.20;;
75628;SDS011;64213;46.452;16.994;2023-08-30T11:22:42;5.07;;;1.30;;
75628;SDS011;64213;46.452;16.994;2023-08-30T11:25:49;4.28;;;1.10;;
75628;SDS011;64213;46.452;16.994;2023-08-30T11:28:52;4.60;;;1.17;;
75628;SDS011;64213;46.452;16.994;2023-08-30T11:31:54;5.60;;;1.42;;
75628;SDS011;64213;46.452;16.994;2023-08-30T11:34:56;5.75;;;1.83;;
75628;SDS011;64213;46.452;16.994;2023-08-30T11:38:01;7.23;;;1.57;;
75628;SDS011;64213;46.452;16.994;2023-08-30T11:41:04;5.43;;;1.30;;
75628;SDS011;64213;46.452;16.994;2023-08-30T11:44:06;7.03;;;1.60;;
75628;SDS011;64213;46.452;16.994;2023-08-30T11:47:09;5.10;;;1.60;;
75628;SDS011;64213;46.452;16.994;2023-08-30T11:50:11;5.05;;;1.60;;
75628;SDS011;64213;46.452;16.994;2023-08-30T11:53:14;4.77;;;1.40;;
75628;SDS011;64213;46.452;16.994;2023-08-30T11:56:17;5.70;;;1.65;;
75628;SDS011;64213;46.452;16.994;2023-08-30T11:59:20;4.78;;;1.50;;
75628;SDS011;64213;46.452;16.994;2023-08-30T12:02:26;5.05;;;1.37;;
75628;SDS011;64213;46.452;16.994;2023-08-30T12:05:29;5.35;;;1.40;;
75628;SDS011;64213;46.452;16.994;2023-08-30T12:08:35;5.87;;;1.83;;
75628;SDS011;64213;46.452;16.994;2023-08-30T12:11:37;5.20;;;1.30;;
75628;SDS011;64213;46.452;16.994;2023-08-30T12:14:39;4.95;;;1.65;;
75628;SDS011;64213;46.452;16.994;2023-08-30T12:17:41;5.28;;;1.67;;
75628;SDS011;64213;46.452;16.994;2023-08-30T12:21:00;4.75;;;1.25;;
75628;SDS011;64213;46.452;16.994;2023-08-30T12:24:03;5.00;;;1.40;;
75628;SDS011;64213;46.452;16.994;2023-08-30T12:27:05;5.40;;;1.60;;
75628;SDS011;64213;46.452;16.994;2023-08-30T12:30:08;5.07;;;1.30;;
75628;SDS011;64213;46.452;16.994;2023-08-30T12:33:10;4.97;;;1.40;;
75628;SDS011;64213;46.452;16.994;2023-08-30T12:36:13;5.65;;;1.77;;
75628;SDS011;64213;46.452;16.994;2023-08-30T12:39:15;5.13;;;1.30;;
75628;SDS011;64213;46.452;16.994;2023-08-30T12:42:18;5.78;;;1.50;;
75628;SDS011;64213;46.452;16.994;2023-08-30T12:45:20;4.70;;;1.30;;
75628;SDS011;64213;46.452;16.994;2023-08-30T12:48:23;5.18;;;1.40;;
75628;SDS011;64213;46.452;16.994;2023-08-30T12:54:30;4.63;;;1.40;;
75628;SDS011;64213;46.452;16.994;2023-08-30T12:57:33;4.82;;;1.37;;
75628;SDS011;64213;46.452;16.994;2023-08-30T13:00:35;4.85;;;1.30;;
75628;SDS011;64213;46.452;16.994;2023-08-30T13:03:37;4.85;;;1.20;;
75628;SDS011;64213;46.452;16.994;2023-08-30T13:06:40;4.05;;;1.10;;
75628;SDS011;64213;46.452;16.994;2023-08-30T13:09:42;5.37;;;2.07;;
75628;SDS011;64213;46.452;16.994;2023-08-30T13:12:53;5.00;;;1.35;;
75628;SDS011;64213;46.452;16.994;2023-08-30T13:15:56;4.50;;;1.10;;
75628;SDS011;64213;46.452;16.994;2023-08-30T13:18:58;5.28;;;1.42;;
75628;SDS011;64213;46.452;16.994;2023-08-30T13:22:00;4.65;;;1.30;;
75628;SDS011;64213;46.452;16.994;2023-08-30T13:25:02;5.00;;;1.10;;
75628;SDS011;64213;46.452;16.994;2023-08-30T13:32:06;6.00;;;1.40;;
75628;SDS011;64213;46.452;16.994;2023-08-30T13:35:08;5.45;;;1.45;;
75628;SDS011;64213;46.452;16.994;2023-08-30T13:38:11;4.95;;;1.30;;
75628;SDS011;64213;46.452;16.994;2023-08-30T13:41:13;4.13;;;1.00;;
75628;SDS011;64213;46.452;16.994;2023-08-30T13:44:15;4.90;;;1.20;;
75628;SDS011;64213;46.452;16.994;2023-08-30T13:47:18;5.22;;;1.45;;
75628;SDS011;64213;46.452;16.994;2023-08-30T13:50:21;4.50;;;1.27;;
75628;SDS011;64213;46.452;16.994;2023-08-30T13:53:23;6.20;;;1.30;;
75628;SDS011;64213;46.452;16.994;2023-08-30T13:56:27;5.60;;;1.27;;
75628;SDS011;64213;46.452;16.994;2023-08-30T13:59:32;4.70;;;1.23;;
75628;SDS011;64213;46.452;16.994;2023-08-30T14:02:34;5.87;;;1.42;;
75628;SDS011;64213;46.452;16.994;2023-08-30T14:05:37;4.40;;;1.27;;
75628;SDS011;64213;46.452;16.994;2023-08-30T14:08:45;4.80;;;1.20;;
75628;SDS011;64213;46.452;16.994;2023-08-30T14:11:47;4.67;;;1.40;;
75628;SDS011;64213;46.452;16.994;2023-08-30T14:14:50;5.18;;;1.20;;
75628;SDS011;64213;46.452;16.994;2023-08-30T14:17:53;4.57;;;1.50;;
75628;SDS011;64213;46.452;16.994;2023-08-30T14:20:56;4.47;;;1.20;;
75628;SDS011;64213;46.452;16.994;2023-08-30T14:23:59;5.87;;;1.37;;
75628;SDS011;64213;46.452;16.994;2023-08-30T14:27:01;4.37;;;1.10;;
75628;SDS011;64213;46.452;16.994;2023-08-30T14:30:05;4.40;;;1.20;;
75628;SDS011;64213;46.452;16.994;2023-08-30T14:33:08;5.00;;;1.27;;
75628;SDS011;64213;46.452;16.994;2023-08-30T14:36:14;4.93;;;1.30;;
75628;SDS011;64213;46.452;16.994;2023-08-30T14:39:18;5.95;;;1.75;;
75628;SDS011;64213;46.452;16.994;2023-08-30T14:42:20;4.67;;;1.30;;
75628;SDS011;64213;46.452;16.994;2023-08-30T14:45:23;5.03;;;1.48;;
75628;SDS011;64213;46.452;16.994;2023-08-30T14:48:25;4.90;;;1.42;;
75628;SDS011;64213;46.452;16.994;2023-08-30T14:51:28;4.30;;;1.15;;
75628;SDS011;64213;46.452;16.994;2023-08-30T14:54:30;5.97;;;1.92;;
75628;SDS011;64213;46.452;16.994;2023-08-30T14:57:33;4.40;;;1.27;;
75628;SDS011;64213;46.452;16.994;2023-08-30T15:00:35;4.82;;;1.20;;
75628;SDS011;64213;46.452;16.994;2023-08-30T15:03:38;5.57;;;1.40;;
75628;SDS011;64213;46.452;16.994;2023-08-30T15:06:41;5.57;;;1.15;;
75628;SDS011;64213;46.452;16.994;2023-08-30T15:09:44;5.40;;;1.60;;
75628;SDS011;64213;46.452;16.994;2023-08-30T15:12:47;5.13;;;1.27;;
75628;SDS011;64213;46.452;16.994;2023-08-30T15:15:49;4.65;;;1.15;;
75628;SDS011;64213;46.452;16.994;2023-08-30T15:18:52;4.40;;;1.15;;
75628;SDS011;64213;46.452;16.994;2023-08-30T15:21:54;4.40;;;1.12;;
75628;SDS011;64213;46.452;16.994;2023-08-30T15:24:57;5.12;;;1.30;;
75628;SDS011;64213;46.452;16.994;2023-08-30T15:27:59;4.93;;;1.00;;
75628;SDS011;64213;46.452;16.994;2023-08-30T15:31:02;5.72;;;1.10;;
75628;SDS011;64213;46.452;16.994;2023-08-30T15:34:05;4.37;;;1.20;;
75628;SDS011;64213;46.452;16.994;2023-08-30T15:37:07;4.00;;;1.00;;
75628;SDS011;64213;46.452;16.994;2023-08-30T15:40:14;4.40;;;1.20;;
75628;SDS011;64213;46.452;16.994;2023-08-30T15:43:16;4.87;;;1.30;;
75628;SDS011;64213;46.452;16.994;2023-08-30T15:46:19;4.37;;;1.10;;
75628;SDS011;64213;46.452;16.994;2023-08-30T15:49:23;6.12;;;1.05;;
75628;SDS011;64213;46.452;16.994;2023-08-30T15:52:26;4.90;;;1.30;;
75628;SDS011;64213;46.452;16.994;2023-08-30T15:55:28;4.87;;;1.20;;
75628;SDS011;64213;46.452;16.994;2023-08-30T15:58:32;4.10;;;1.07;;
75628;SDS011;64213;46.452;16.994;2023-08-30T16:01:36;3.95;;;1.10;;
75628;SDS011;64213;46.452;16.994;2023-08-30T16:04:40;6.18;;;1.27;;
75628;SDS011;64213;46.452;16.994;2023-08-30T16:07:42;4.82;;;1.30;;
75628;SDS011;64213;46.452;16.994;2023-08-30T16:10:51;4.97;;;1.35;;
75628;SDS011;64213;46.452;16.994;2023-08-30T16:13:55;4.53;;;1.20;;
75628;SDS011;64213;46.452;16.994;2023-08-30T16:17:00;5.20;;;1.17;;
75628;SDS011;64213;46.452;16.994;2023-08-30T16:20:07;4.47;;;1.20;;
75628;SDS011;64213;46.452;16.994;2023-08-30T16:23:14;3.80;;;1.00;;
75628;SDS011;64213;46.452;16.994;2023-08-30T16:26:18;5.20;;;1.15;;
75628;SDS011;64213;46.452;16.994;2023-08-30T16:29:23;4.37;;;1.10;;
75628;SDS011;64213;46.452;16.994;2023-08-30T16:32:27;4.57;;;1.20;;
75628;SDS011;64213;46.452;16.994;2023-08-30T16:35:30;5.35;;;1.40;;
75628;SDS011;64213;46.452;16.994;2023-08-30T16:38:34;5.28;;;1.20;;
75628;SDS011;64213;46.452;16.994;2023-08-30T16:41:38;4.47;;;1.02;;
75628;SDS011;64213;46.452;16.994;2023-08-30T16:44:42;4.77;;;0.90;;
75628;SDS011;64213;46.452;16.994;2023-08-30T16:47:47;4.30;;;1.15;;
75628;SDS011;64213;46.452;16.994;2023-08-30T16:51:07;5.60;;;1.20;;
75628;SDS011;64213;46.452;16.994;2023-08-30T16:54:11;4.55;;;1.10;;
75628;SDS011;64213;46.452;16.994;2023-08-30T16:57:15;4.43;;;1.20;;
75628;SDS011;64213;46.452;16.994;2023-08-30T17:00:20;3.90;;;1.00;;
75628;SDS011;64213;46.452;16.994;2023-08-30T17:03:23;4.57;;;1.05;;
75628;SDS011;64213;46.452;16.994;2023-08-30T17:06:30;4.62;;;1.10;;
75628;SDS011;64213;46.452;16.994;2023-08-30T17:09:36;4.25;;;1.10;;
75628;SDS011;64213;46.452;16.994;2023-08-30T17:12:41;4.78;;;1.37;;
75628;SDS011;64213;46.452;16.994;2023-08-30T17:15:47;5.43;;;1.20;;
75628;SDS011;64213;46.452;16.994;2023-08-30T17:18:51;5.28;;;1.37;;
75628;SDS011;64213;46.452;16.994;2023-08-30T17:21:55;6.82;;;1.25;;
75628;SDS011;64213;46.452;16.994;2023-08-30T17:24:59;4.85;;;1.10;;
75628;SDS011;64213;46.452;16.994;2023-08-30T17:28:03;5.30;;;1.40;;
75628;SDS011;64213;46.452;16.994;2023-08-30T17:31:19;4.87;;;1.10;;
75628;SDS011;64213;46.452;16.994;2023-08-30T17:34:26;5.05;;;1.30;;
75628;SDS011;64213;46.452;16.994;2023-08-30T17:37:33;4.30;;;1.20;;
75628;SDS011;64213;46.452;16.994;2023-08-30T17:40:40;5.80;;;1.50;;
75628;SDS011;64213;46.452;16.994;2023-08-30T17:43:47;6.32;;;1.40;;
75628;SDS011;64213;46.452;16.994;2023-08-30T17:46:52;5.20;;;1.20;;
75628;SDS011;64213;46.452;16.994;2023-08-30T17:49:58;5.45;;;1.05;;
75628;SDS011;64213;46.452;16.994;2023-08-30T17:53:03;5.25;;;1.33;;
75628;SDS011;64213;46.452;16.994;2023-08-30T17:56:07;8.68;;;1.20;;
75628;SDS011;64213;46.452;16.994;2023-08-30T17:59:16;5.37;;;1.20;;
75628;SDS011;64213;46.452;16.994;2023-08-30T18:02:21;5.33;;;1.10;;
75628;SDS011;64213;46.452;16.994;2023-08-30T18:05:26;4.28;;;1.08;;
75628;SDS011;64213;46.452;16.994;2023-08-30T18:08:35;5.47;;;1.30;;
75628;SDS011;64213;46.452;16.994;2023-08-30T18:11:41;5.60;;;1.70;;
75628;SDS011;64213;46.452;16.994;2023-08-30T18:14:48;5.37;;;1.30;;
75628;SDS011;64213;46.452;16.994;2023-08-30T18:17:57;5.33;;;1.00;;
75628;SDS011;64213;46.452;16.994;2023-08-30T18:21:02;5.25;;;1.10;;
75628;SDS011;64213;46.452;16.994;2023-08-30T18:24:14;6.12;;;1.30;;
75628;SDS011;64213;46.452;16.994;2023-08-30T18:27:20;4.97;;;1.30;;
75628;SDS011;64213;46.452;16.994;2023-08-30T18:30:26;4.45;;;1.10;;
75628;SDS011;64213;46.452;16.994;2023-08-30T18:33:32;4.63;;;1.03;;